sensor_id;sensor_type;location;lat;lon;timestamp;P1;durP1;ratioP1;P2;durP2;ratioP2
27618;SDS011;15039;50.830;4.730;2022-07-12T00:01:31;2.78;;;2.20;;
27618;SDS011;15039;50.830;4.730;2022-07-12T00:03:57;3.03;;;2.28;;
27618;SDS011;15039;50.830;4.730;2022-07-12T00:06:23;4.72;;;2.20;;
27618;SDS011;15039;50.830;4.730;2022-07-12T00:08:49;5.43;;;2.10;;
27618;SDS011;15039;50.830;4.730;2022-07-12T00:11:14;5.18;;;2.42;;
27618;SDS011;15039;50.830;4.730;2022-07-12T00:13:40;4.53;;;2.30;;
27618;SDS011;15039;50.830;4.730;2022-07-12T00:16:06;4.03;;;2.47;;
27618;SDS011;15039;50.830;4.730;2022-07-12T00:18:32;5.63;;;2.47;;
27618;SDS011;15039;50.830;4.730;2022-07-12T00:20:58;3.72;;;2.22;;
27618;SDS011;15039;50.830;4.730;2022-07-12T00:23:23;4.75;;;2.40;;
27618;SDS011;15039;50.830;4.730;2022-07-12T00:25:49;2.00;;;1.90;;
27618;SDS011;15039;50.830;4.730;2022-07-12T00:28:15;3.08;;;2.78;;
27618;SDS011;15039;50.830;4.730;2022-07-12T00:30:40;2.67;;;2.30;;
27618;SDS011;15039;50.830;4.730;2022-07-12T00:33:06;4.82;;;2.40;;
27618;SDS011;15039;50.830;4.730;2022-07-12T00:35:32;2.78;;;2.58;;
27618;SDS011;15039;50.830;4.730;2022-07-12T00:37:57;2.35;;;2.15;;
27618;SDS011;15039;50.830;4.730;2022-07-12T00:40:23;2.50;;;2.30;;
27618;SDS011;15039;50.830;4.730;2022-07-12T00:42:48;2.70;;;2.50;;
27618;SDS011;15039;50.830;4.730;2022-07-12T00:45:14;2.83;;;2.63;;
27618;SDS011;15039;50.830;4.730;2022-07-12T00:47:41;2.80;;;2.60;;
27618;SDS011;15039;50.830;4.730;2022-07-12T00:50:14;4.63;;;3.10;;
27618;SDS011;15039;50.830;4.730;2022-07-12T00:52:46;3.25;;;2.95;;
27618;SDS011;15039;50.830;4.730;2022-07-12T00:55:13;8.13;;;3.65;;
27618;SDS011;15039;50.830;4.730;2022-07-12T00:57:41;3.60;;;3.30;;
27618;SDS011;15039;50.830;4.730;2022-07-12T01:00:13;3.33;;;3.03;;
27618;SDS011;15039;50.830;4.730;2022-07-12T01:02:41;4.03;;;3.10;;
27618;SDS011;15039;50.830;4.730;2022-07-12T01:05:08;3.65;;;2.85;;
27618;SDS011;15039;50.830;4.730;2022-07-12T01:07:34;4.50;;;3.25;;
27618;SDS011;15039;50.830;4.730;2022-07-12T01:10:01;5.85;;;3.10;;
27618;SDS011;15039;50.830;4.730;2022-07-12T01:12:28;4.22;;;2.70;;
27618;SDS011;15039;50.830;4.730;2022-07-12T01:14:54;3.50;;;2.97;;
27618;SDS011;15039;50.830;4.730;2022-07-12T01:17:21;2.63;;;2.42;;
27618;SDS011;15039;50.830;4.730;2022-07-12T01:19:48;2.70;;;2.38;;
27618;SDS011;15039;50.830;4.730;2022-07-12T01:22:18;3.33;;;2.95;;
27618;SDS011;15039;50.830;4.730;2022-07-12T01:24:50;3.38;;;3.10;;
27618;SDS011;15039;50.830;4.730;2022-07-12T01:27:16;3.78;;;3.35;;
27618;SDS011;15039;50.830;4.730;2022-07-12T01:29:42;3.85;;;3.53;;
27618;SDS011;15039;50.830;4.730;2022-07-12T01:32:08;3.15;;;2.85;;
27618;SDS011;15039;50.830;4.730;2022-07-12T01:34:53;3.53;;;3.22;;
27618;SDS011;15039;50.830;4.730;2022-07-12T01:37:20;3.40;;;3.10;;
27618;SDS011;15039;50.830;4.730;2022-07-12T01:39:51;3.45;;;3.10;;
27618;SDS011;15039;50.830;4.730;2022-07-12T01:42:19;3.30;;;3.10;;
27618;SDS011;15039;50.830;4.730;2022-07-12T01:44:46;4.45;;;4.03;;
27618;SDS011;15039;50.830;4.730;2022-07-12T01:47:13;3.42;;;3.13;;
27618;SDS011;15039;50.830;4.730;2022-07-12T01:49:38;3.45;;;3.15;;
27618;SDS011;15039;50.830;4.730;2022-07-12T01:52:04;5.65;;;3.55;;
27618;SDS011;15039;50.830;4.730;2022-07-12T01:54:30;3.92;;;3.47;;
27618;SDS011;15039;50.830;4.730;2022-07-12T01:56:56;3.70;;;3.40;;
27618;SDS011;15039;50.830;4.730;2022-07-12T01:59:21;4.93;;;3.60;;
27618;SDS011;15039;50.830;4.730;2022-07-12T02:01:48;4.22;;;3.15;;
27618;SDS011;15039;50.830;4.730;2022-07-12T02:04:17;5.40;;;3.60;;
27618;SDS011;15039;50.830;4.730;2022-07-12T02:06:43;4.43;;;3.80;;
27618;SDS011;15039;50.830;4.730;2022-07-12T02:09:10;4.38;;;3.97;;
27618;SDS011;15039;50.830;4.730;2022-07-12T02:14:05;9.35;;;4.30;;
27618;SDS011;15039;50.830;4.730;2022-07-12T02:16:30;4.90;;;4.05;;
27618;SDS011;15039;50.830;4.730;2022-07-12T02:18:56;5.03;;;3.72;;
27618;SDS011;15039;50.830;4.730;2022-07-12T02:21:22;5.93;;;4.25;;
27618;SDS011;15039;50.830;4.730;2022-07-12T02:23:48;4.85;;;4.45;;
27618;SDS011;15039;50.830;4.730;2022-07-12T02:26:14;5.32;;;4.13;;
27618;SDS011;15039;50.830;4.730;2022-07-12T02:28:40;4.50;;;4.10;;
27618;SDS011;15039;50.830;4.730;2022-07-12T02:31:06;5.88;;;4.25;;
27618;SDS011;15039;50.830;4.730;2022-07-12T02:33:32;6.00;;;4.70;;
27618;SDS011;15039;50.830;4.730;2022-07-12T02:35:57;6.15;;;4.68;;
27618;SDS011;15039;50.830;4.730;2022-07-12T02:38:23;5.80;;;4.97;;
27618;SDS011;15039;50.830;4.730;2022-07-12T02:40:49;7.03;;;4.72;;
27618;SDS011;15039;50.830;4.730;2022-07-12T02:43:24;5.45;;;4.95;;
27618;SDS011;15039;50.830;4.730;2022-07-12T02:45:54;5.43;;;4.82;;
27618;SDS011;15039;50.830;4.730;2022-07-12T02:48:27;6.22;;;5.22;;
27618;SDS011;15039;50.830;4.730;2022-07-12T02:50:52;7.38;;;5.90;;
27618;SDS011;15039;50.830;4.730;2022-07-12T02:53:18;5.82;;;5.22;;
27618;SDS011;15039;50.830;4.730;2022-07-12T02:55:44;7.30;;;5.13;;
27618;SDS011;15039;50.830;4.730;2022-07-12T02:58:10;7.85;;;5.65;;
27618;SDS011;15039;50.830;4.730;2022-07-12T03:00:36;6.28;;;5.00;;
27618;SDS011;15039;50.830;4.730;2022-07-12T03:03:03;5.70;;;5.13;;
27618;SDS011;15039;50.830;4.730;2022-07-12T03:05:28;6.93;;;4.95;;
27618;SDS011;15039;50.830;4.730;2022-07-12T03:07:54;6.18;;;5.22;;
27618;SDS011;15039;50.830;4.730;2022-07-12T03:10:20;8.20;;;4.88;;
27618;SDS011;15039;50.830;4.730;2022-07-12T03:12:45;6.32;;;5.00;;
27618;SDS011;15039;50.830;4.730;2022-07-12T03:15:11;8.55;;;5.60;;
27618;SDS011;15039;50.830;4.730;2022-07-12T03:17:37;4.63;;;4.22;;
27618;SDS011;15039;50.830;4.730;2022-07-12T03:20:04;6.18;;;4.13;;
27618;SDS011;15039;50.830;4.730;2022-07-12T03:22:36;7.40;;;4.50;;
27618;SDS011;15039;50.830;4.730;2022-07-12T03:25:02;4.40;;;4.00;;
27618;SDS011;15039;50.830;4.730;2022-07-12T03:27:28;6.32;;;3.70;;
27618;SDS011;15039;50.830;4.730;2022-07-12T03:29:56;6.72;;;4.15;;
27618;SDS011;15039;50.830;4.730;2022-07-12T03:32:22;5.18;;;4.45;;
27618;SDS011;15039;50.830;4.730;2022-07-12T03:34:48;4.68;;;4.10;;
27618;SDS011;15039;50.830;4.730;2022-07-12T03:37:14;5.00;;;4.35;;
27618;SDS011;15039;50.830;4.730;2022-07-12T03:39:39;4.93;;;3.95;;
27618;SDS011;15039;50.830;4.730;2022-07-12T03:42:05;4.13;;;3.30;;
27618;SDS011;15039;50.830;4.730;2022-07-12T03:44:30;4.45;;;4.05;;
27618;SDS011;15039;50.830;4.730;2022-07-12T03:46:56;6.05;;;4.50;;
27618;SDS011;15039;50.830;4.730;2022-07-12T03:49:23;5.40;;;4.10;;
27618;SDS011;15039;50.830;4.730;2022-07-12T03:51:49;5.30;;;4.15;;
27618;SDS011;15039;50.830;4.730;2022-07-12T03:54:14;4.55;;;4.03;;
27618;SDS011;15039;50.830;4.730;2022-07-12T03:56:40;7.60;;;4.70;;
27618;SDS011;15039;50.830;4.730;2022-07-12T03:59:24;7.07;;;5.07;;
27618;SDS011;15039;50.830;4.730;2022-07-12T04:01:50;6.70;;;5.53;;
27618;SDS011;15039;50.830;4.730;2022-07-12T04:04:15;5.57;;;5.05;;
27618;SDS011;15039;50.830;4.730;2022-07-12T04:06:41;5.72;;;5.10;;
27618;SDS011;15039;50.830;4.730;2022-07-12T04:09:07;6.38;;;5.05;;
27618;SDS011;15039;50.830;4.730;2022-07-12T04:11:33;6.85;;;5.30;;
27618;SDS011;15039;50.830;4.730;2022-07-12T04:13:59;6.07;;;5.20;;
27618;SDS011;15039;50.830;4.730;2022-07-12T04:16:25;5.65;;;5.00;;
27618;SDS011;15039;50.830;4.730;2022-07-12T04:18:51;6.93;;;5.68;;
27618;SDS011;15039;50.830;4.730;2022-07-12T04:21:17;5.32;;;4.82;;
27618;SDS011;15039;50.830;4.730;2022-07-12T04:23:43;7.47;;;5.38;;
27618;SDS011;15039;50.830;4.730;2022-07-12T04:26:08;7.63;;;5.60;;
27618;SDS011;15039;50.830;4.730;2022-07-12T04:28:34;5.40;;;4.90;;
27618;SDS011;15039;50.830;4.730;2022-07-12T04:31:00;7.25;;;5.47;;
27618;SDS011;15039;50.830;4.730;2022-07-12T04:33:26;6.13;;;5.10;;
27618;SDS011;15039;50.830;4.730;2022-07-12T04:35:51;6.30;;;5.70;;
27618;SDS011;15039;50.830;4.730;2022-07-12T04:38:17;6.22;;;5.18;;
27618;SDS011;15039;50.830;4.730;2022-07-12T04:40:43;5.50;;;5.00;;
27618;SDS011;15039;50.830;4.730;2022-07-12T04:43:08;6.22;;;5.22;;
27618;SDS011;15039;50.830;4.730;2022-07-12T04:45:34;5.97;;;5.20;;
27618;SDS011;15039;50.830;4.730;2022-07-12T04:47:59;6.18;;;5.10;;
27618;SDS011;15039;50.830;4.730;2022-07-12T04:50:25;7.63;;;5.53;;
27618;SDS011;15039;50.830;4.730;2022-07-12T04:52:51;6.38;;;5.78;;
27618;SDS011;15039;50.830;4.730;2022-07-12T04:55:17;7.30;;;5.78;;
27618;SDS011;15039;50.830;4.730;2022-07-12T04:57:43;6.80;;;5.75;;
27618;SDS011;15039;50.830;4.730;2022-07-12T05:00:08;7.15;;;5.78;;
27618;SDS011;15039;50.830;4.730;2022-07-12T05:02:35;6.50;;;5.50;;
27618;SDS011;15039;50.830;4.730;2022-07-12T05:05:00;8.15;;;6.10;;
27618;SDS011;15039;50.830;4.730;2022-07-12T05:07:26;9.30;;;5.30;;
27618;SDS011;15039;50.830;4.730;2022-07-12T05:09:52;6.63;;;5.30;;
27618;SDS011;15039;50.830;4.730;2022-07-12T05:12:17;6.22;;;5.63;;
27618;SDS011;15039;50.830;4.730;2022-07-12T05:14:43;6.10;;;5.60;;
27618;SDS011;15039;50.830;4.730;2022-07-12T05:17:09;6.88;;;5.40;;
27618;SDS011;15039;50.830;4.730;2022-07-12T05:19:36;8.73;;;4.90;;
27618;SDS011;15039;50.830;4.730;2022-07-12T05:22:02;5.90;;;4.90;;
27618;SDS011;15039;50.830;4.730;2022-07-12T05:24:28;6.18;;;5.57;;
27618;SDS011;15039;50.830;4.730;2022-07-12T05:26:54;8.43;;;5.60;;
27618;SDS011;15039;50.830;4.730;2022-07-12T05:29:20;7.13;;;5.60;;
27618;SDS011;15039;50.830;4.730;2022-07-12T05:31:45;6.90;;;5.72;;
27618;SDS011;15039;50.830;4.730;2022-07-12T05:34:11;6.20;;;5.60;;
27618;SDS011;15039;50.830;4.730;2022-07-12T05:36:37;5.68;;;5.18;;
27618;SDS011;15039;50.830;4.730;2022-07-12T05:39:03;6.88;;;6.03;;
27618;SDS011;15039;50.830;4.730;2022-07-12T05:41:29;6.43;;;5.82;;
27618;SDS011;15039;50.830;4.730;2022-07-12T05:43:55;7.28;;;6.57;;
27618;SDS011;15039;50.830;4.730;2022-07-12T05:46:20;6.25;;;5.47;;
27618;SDS011;15039;50.830;4.730;2022-07-12T05:48:46;5.82;;;5.20;;
27618;SDS011;15039;50.830;4.730;2022-07-12T05:51:11;5.80;;;5.30;;
27618;SDS011;15039;50.830;4.730;2022-07-12T05:53:55;6.85;;;5.10;;
27618;SDS011;15039;50.830;4.730;2022-07-12T05:56:21;7.10;;;5.30;;
27618;SDS011;15039;50.830;4.730;2022-07-12T05:58:47;6.43;;;5.53;;
27618;SDS011;15039;50.830;4.730;2022-07-12T06:01:12;7.07;;;5.28;;
27618;SDS011;15039;50.830;4.730;2022-07-12T06:03:38;6.57;;;5.90;;
27618;SDS011;15039;50.830;4.730;2022-07-12T06:06:04;6.03;;;5.53;;
27618;SDS011;15039;50.830;4.730;2022-07-12T06:08:30;6.13;;;5.53;;
27618;SDS011;15039;50.830;4.730;2022-07-12T06:10:56;6.38;;;5.78;;
27618;SDS011;15039;50.830;4.730;2022-07-12T06:13:21;5.82;;;5.22;;
27618;SDS011;15039;50.830;4.730;2022-07-12T06:15:47;5.35;;;4.80;;
27618;SDS011;15039;50.830;4.730;2022-07-12T06:18:13;5.82;;;4.68;;
27618;SDS011;15039;50.830;4.730;2022-07-12T06:20:38;5.40;;;4.90;;
27618;SDS011;15039;50.830;4.730;2022-07-12T06:23:04;5.05;;;4.55;;
27618;SDS011;15039;50.830;4.730;2022-07-12T06:25:29;4.65;;;4.22;;
27618;SDS011;15039;50.830;4.730;2022-07-12T06:27:55;5.05;;;4.55;;
27618;SDS011;15039;50.830;4.730;2022-07-12T06:30:24;4.88;;;4.47;;
27618;SDS011;15039;50.830;4.730;2022-07-12T06:32:49;4.55;;;4.03;;
27618;SDS011;15039;50.830;4.730;2022-07-12T06:35:15;5.55;;;3.83;;
27618;SDS011;15039;50.830;4.730;2022-07-12T06:37:41;4.28;;;3.95;;
27618;SDS011;15039;50.830;4.730;2022-07-12T06:40:07;4.05;;;3.65;;
27618;SDS011;15039;50.830;4.730;2022-07-12T06:42:33;5.88;;;3.65;;
27618;SDS011;15039;50.830;4.730;2022-07-12T06:45:00;4.97;;;4.03;;
27618;SDS011;15039;50.830;4.730;2022-07-12T06:47:26;4.32;;;4.03;;
27618;SDS011;15039;50.830;4.730;2022-07-12T06:49:52;4.82;;;4.43;;
27618;SDS011;15039;50.830;4.730;2022-07-12T06:52:18;4.72;;;4.13;;
27618;SDS011;15039;50.830;4.730;2022-07-12T06:54:43;5.25;;;4.85;;
27618;SDS011;15039;50.830;4.730;2022-07-12T06:57:09;4.65;;;4.25;;
27618;SDS011;15039;50.830;4.730;2022-07-12T06:59:35;6.40;;;5.57;;
27618;SDS011;15039;50.830;4.730;2022-07-12T07:02:01;4.70;;;4.30;;
27618;SDS011;15039;50.830;4.730;2022-07-12T07:04:26;7.57;;;5.35;;
27618;SDS011;15039;50.830;4.730;2022-07-12T07:06:52;7.82;;;5.20;;
27618;SDS011;15039;50.830;4.730;2022-07-12T07:09:18;5.88;;;5.18;;
27618;SDS011;15039;50.830;4.730;2022-07-12T07:11:44;5.80;;;5.28;;
27618;SDS011;15039;50.830;4.730;2022-07-12T07:14:10;6.35;;;4.78;;
27618;SDS011;15039;50.830;4.730;2022-07-12T07:16:36;6.65;;;5.80;;
27618;SDS011;15039;50.830;4.730;2022-07-12T07:19:01;6.13;;;5.57;;
27618;SDS011;15039;50.830;4.730;2022-07-12T07:21:27;5.32;;;4.82;;
27618;SDS011;15039;50.830;4.730;2022-07-12T07:23:53;5.88;;;5.25;;
27618;SDS011;15039;50.830;4.730;2022-07-12T07:26:19;5.95;;;5.05;;
27618;SDS011;15039;50.830;4.730;2022-07-12T07:28:45;7.38;;;5.43;;
27618;SDS011;15039;50.830;4.730;2022-07-12T07:31:29;5.97;;;4.75;;
27618;SDS011;15039;50.830;4.730;2022-07-12T07:33:58;5.00;;;4.50;;
27618;SDS011;15039;50.830;4.730;2022-07-12T07:36:23;5.13;;;4.63;;
27618;SDS011;15039;50.830;4.730;2022-07-12T07:38:49;5.63;;;4.97;;
27618;SDS011;15039;50.830;4.730;2022-07-12T07:41:15;6.82;;;4.55;;
27618;SDS011;15039;50.830;4.730;2022-07-12T07:43:40;4.72;;;4.32;;
27618;SDS011;15039;50.830;4.730;2022-07-12T07:46:06;4.50;;;4.10;;
27618;SDS011;15039;50.830;4.730;2022-07-12T07:48:31;4.47;;;4.10;;
27618;SDS011;15039;50.830;4.730;2022-07-12T07:50:57;4.82;;;4.43;;
27618;SDS011;15039;50.830;4.730;2022-07-12T07:53:23;4.60;;;4.20;;
27618;SDS011;15039;50.830;4.730;2022-07-12T07:55:49;4.30;;;3.90;;
27618;SDS011;15039;50.830;4.730;2022-07-12T07:58:15;5.63;;;5.00;;
27618;SDS011;15039;50.830;4.730;2022-07-12T08:00:41;4.68;;;4.30;;
27618;SDS011;15039;50.830;4.730;2022-07-12T08:03:06;4.57;;;4.18;;
27618;SDS011;15039;50.830;4.730;2022-07-12T08:05:32;4.25;;;3.85;;
27618;SDS011;15039;50.830;4.730;2022-07-12T08:07:58;6.75;;;4.50;;
27618;SDS011;15039;50.830;4.730;2022-07-12T08:10:24;5.10;;;3.90;;
27618;SDS011;15039;50.830;4.730;2022-07-12T08:12:50;4.35;;;3.95;;
27618;SDS011;15039;50.830;4.730;2022-07-12T08:15:15;5.07;;;4.57;;
27618;SDS011;15039;50.830;4.730;2022-07-12T08:17:41;6.07;;;4.18;;
27618;SDS011;15039;50.830;4.730;2022-07-12T08:20:07;5.40;;;3.83;;
27618;SDS011;15039;50.830;4.730;2022-07-12T08:22:33;4.68;;;4.25;;
27618;SDS011;15039;50.830;4.730;2022-07-12T08:24:59;4.78;;;4.30;;
27618;SDS011;15039;50.830;4.730;2022-07-12T08:27:25;6.05;;;4.10;;
27618;SDS011;15039;50.830;4.730;2022-07-12T08:29:50;4.50;;;4.05;;
27618;SDS011;15039;50.830;4.730;2022-07-12T08:32:16;3.80;;;3.50;;
27618;SDS011;15039;50.830;4.730;2022-07-12T08:34:42;4.40;;;4.00;;
27618;SDS011;15039;50.830;4.730;2022-07-12T08:37:07;5.03;;;4.00;;
27618;SDS011;15039;50.830;4.730;2022-07-12T08:39:33;4.25;;;3.30;;
27618;SDS011;15039;50.830;4.730;2022-07-12T08:41:59;5.30;;;3.90;;
27618;SDS011;15039;50.830;4.730;2022-07-12T08:44:25;5.38;;;4.18;;
27618;SDS011;15039;50.830;4.730;2022-07-12T08:46:51;4.10;;;3.70;;
27618;SDS011;15039;50.830;4.730;2022-07-12T08:49:17;4.60;;;4.03;;
27618;SDS011;15039;50.830;4.730;2022-07-12T08:51:43;3.78;;;3.42;;
27618;SDS011;15039;50.830;4.730;2022-07-12T08:54:12;4.00;;;3.70;;
27618;SDS011;15039;50.830;4.730;2022-07-12T08:56:39;4.25;;;3.85;;
27618;SDS011;15039;50.830;4.730;2022-07-12T08:59:13;4.13;;;3.72;;
27618;SDS011;15039;50.830;4.730;2022-07-12T09:01:50;5.88;;;3.90;;
27618;SDS011;15039;50.830;4.730;2022-07-12T09:04:21;4.93;;;4.07;;
27618;SDS011;15039;50.830;4.730;2022-07-12T09:06:52;4.20;;;3.83;;
27618;SDS011;15039;50.830;4.730;2022-07-12T09:09:32;4.25;;;3.95;;
27618;SDS011;15039;50.830;4.730;2022-07-12T09:11:59;3.80;;;3.38;;
27618;SDS011;15039;50.830;4.730;2022-07-12T09:14:24;3.30;;;3.10;;
27618;SDS011;15039;50.830;4.730;2022-07-12T09:17:24;3.40;;;3.10;;
27618;SDS011;15039;50.830;4.730;2022-07-12T09:19:55;4.40;;;3.05;;
27618;SDS011;15039;50.830;4.730;2022-07-12T09:22:22;3.58;;;3.28;;
27618;SDS011;15039;50.830;4.730;2022-07-12T09:24:47;3.55;;;3.20;;
27618;SDS011;15039;50.830;4.730;2022-07-12T09:27:13;4.38;;;3.20;;
27618;SDS011;15039;50.830;4.730;2022-07-12T09:29:46;4.03;;;3.63;;
27618;SDS011;15039;50.830;4.730;2022-07-12T09:32:12;3.20;;;3.00;;
27618;SDS011;15039;50.830;4.730;2022-07-12T09:34:57;2.60;;;2.40;;
27618;SDS011;15039;50.830;4.730;2022-07-12T09:37:42;3.22;;;2.60;;
27618;SDS011;15039;50.830;4.730;2022-07-12T09:40:08;3.03;;;2.80;;
27618;SDS011;15039;50.830;4.730;2022-07-12T09:42:34;3.20;;;2.90;;
27618;SDS011;15039;50.830;4.730;2022-07-12T09:45:00;3.80;;;3.10;;
27618;SDS011;15039;50.830;4.730;2022-07-12T09:47:26;3.55;;;3.00;;
27618;SDS011;15039;50.830;4.730;2022-07-12T09:49:55;5.85;;;3.42;;
27618;SDS011;15039;50.830;4.730;2022-07-12T09:52:24;4.38;;;2.92;;
27618;SDS011;15039;50.830;4.730;2022-07-12T09:54:54;3.03;;;2.72;;
27618;SDS011;15039;50.830;4.730;2022-07-12T09:57:30;3.10;;;2.80;;
27618;SDS011;15039;50.830;4.730;2022-07-12T09:59:58;3.22;;;2.80;;
27618;SDS011;15039;50.830;4.730;2022-07-12T10:02:25;3.42;;;2.78;;
27618;SDS011;15039;50.830;4.730;2022-07-12T10:04:51;4.93;;;3.03;;
27618;SDS011;15039;50.830;4.730;2022-07-12T10:07:18;3.22;;;2.92;;
27618;SDS011;15039;50.830;4.730;2022-07-12T10:09:45;3.30;;;3.00;;
27618;SDS011;15039;50.830;4.730;2022-07-12T10:12:17;3.70;;;3.40;;
27618;SDS011;15039;50.830;4.730;2022-07-12T10:14:45;5.35;;;3.15;;
27618;SDS011;15039;50.830;4.730;2022-07-12T10:17:13;5.70;;;3.00;;
27618;SDS011;15039;50.830;4.730;2022-07-12T10:19:47;4.03;;;2.75;;
27618;SDS011;15039;50.830;4.730;2022-07-12T10:22:20;5.53;;;2.88;;
27618;SDS011;15039;50.830;4.730;2022-07-12T10:24:46;4.35;;;2.40;;
27618;SDS011;15039;50.830;4.730;2022-07-12T10:29:52;2.75;;;2.55;;
27618;SDS011;15039;50.830;4.730;2022-07-12T10:32:36;1.95;;;1.83;;
27618;SDS011;15039;50.830;4.730;2022-07-12T10:35:11;2.92;;;2.67;;
27618;SDS011;15039;50.830;4.730;2022-07-12T10:37:39;2.72;;;2.53;;
27618;SDS011;15039;50.830;4.730;2022-07-12T10:40:12;2.75;;;2.55;;
27618;SDS011;15039;50.830;4.730;2022-07-12T10:45:50;2.53;;;2.33;;
27618;SDS011;15039;50.830;4.730;2022-07-12T10:58:47;2.05;;;1.90;;
27618;SDS011;15039;50.830;4.730;2022-07-12T11:03:54;3.15;;;2.28;;
27618;SDS011;15039;50.830;4.730;2022-07-12T11:06:22;2.40;;;2.20;;
27618;SDS011;15039;50.830;4.730;2022-07-12T11:08:59;2.13;;;2.03;;
27618;SDS011;15039;50.830;4.730;2022-07-12T11:11:29;2.90;;;2.00;;
27618;SDS011;15039;50.830;4.730;2022-07-12T11:13:56;2.15;;;1.92;;
27618;SDS011;15039;50.830;4.730;2022-07-12T11:16:23;3.42;;;2.13;;
27618;SDS011;15039;50.830;4.730;2022-07-12T11:18:49;1.92;;;1.83;;
27618;SDS011;15039;50.830;4.730;2022-07-12T11:21:16;2.85;;;2.00;;
27618;SDS011;15039;50.830;4.730;2022-07-12T11:23:42;2.30;;;2.10;;
27618;SDS011;15039;50.830;4.730;2022-07-12T11:26:08;1.85;;;1.75;;
27618;SDS011;15039;50.830;4.730;2022-07-12T11:28:36;2.03;;;1.92;;
27618;SDS011;15039;50.830;4.730;2022-07-12T11:31:09;2.10;;;1.90;;
27618;SDS011;15039;50.830;4.730;2022-07-12T11:33:40;2.10;;;2.00;;
27618;SDS011;15039;50.830;4.730;2022-07-12T11:36:08;2.92;;;1.98;;
27618;SDS011;15039;50.830;4.730;2022-07-12T11:38:35;3.33;;;1.70;;
27618;SDS011;15039;50.830;4.730;2022-07-12T11:41:02;2.05;;;1.95;;
27618;SDS011;15039;50.830;4.730;2022-07-12T11:43:30;1.70;;;1.60;;
27618;SDS011;15039;50.830;4.730;2022-07-12T11:45:57;2.45;;;1.63;;
27618;SDS011;15039;50.830;4.730;2022-07-12T11:48:23;2.13;;;1.70;;
27618;SDS011;15039;50.830;4.730;2022-07-12T11:50:51;2.05;;;1.60;;
27618;SDS011;15039;50.830;4.730;2022-07-12T11:53:18;2.92;;;1.70;;
27618;SDS011;15039;50.830;4.730;2022-07-12T11:55:44;2.88;;;1.40;;
27618;SDS011;15039;50.830;4.730;2022-07-12T11:58:12;3.10;;;1.92;;
27618;SDS011;15039;50.830;4.730;2022-07-12T12:00:39;1.70;;;1.60;;
27618;SDS011;15039;50.830;4.730;2022-07-12T12:03:05;3.70;;;1.98;;
27618;SDS011;15039;50.830;4.730;2022-07-12T12:05:30;5.97;;;1.67;;
27618;SDS011;15039;50.830;4.730;2022-07-12T12:07:56;1.80;;;1.70;;
27618;SDS011;15039;50.830;4.730;2022-07-12T12:10:22;1.65;;;1.52;;
27618;SDS011;15039;50.830;4.730;2022-07-12T12:12:58;3.85;;;1.70;;
27618;SDS011;15039;50.830;4.730;2022-07-12T12:15:29;1.98;;;1.40;;
27618;SDS011;15039;50.830;4.730;2022-07-12T12:18:02;1.80;;;1.60;;
27618;SDS011;15039;50.830;4.730;2022-07-12T12:20:30;3.25;;;1.60;;
27618;SDS011;15039;50.830;4.730;2022-07-12T12:22:58;3.13;;;1.67;;
27618;SDS011;15039;50.830;4.730;2022-07-12T12:25:26;6.18;;;1.70;;
27618;SDS011;15039;50.830;4.730;2022-07-12T12:30:29;2.95;;;1.92;;
27618;SDS011;15039;50.830;4.730;2022-07-12T12:32:58;1.65;;;1.55;;
27618;SDS011;15039;50.830;4.730;2022-07-12T12:35:32;1.65;;;1.55;;
27618;SDS011;15039;50.830;4.730;2022-07-12T12:38:02;1.38;;;1.25;;
27618;SDS011;15039;50.830;4.730;2022-07-12T12:40:38;1.70;;;1.50;;
27618;SDS011;15039;50.830;4.730;2022-07-12T12:43:09;3.03;;;1.35;;
27618;SDS011;15039;50.830;4.730;2022-07-12T12:45:47;1.88;;;1.48;;
27618;SDS011;15039;50.830;4.730;2022-07-12T12:48:17;7.40;;;1.80;;
27618;SDS011;15039;50.830;4.730;2022-07-12T12:50:46;1.58;;;1.48;;
27618;SDS011;15039;50.830;4.730;2022-07-12T12:53:18;1.50;;;1.40;;
27618;SDS011;15039;50.830;4.730;2022-07-12T12:55:46;1.95;;;1.73;;
27618;SDS011;15039;50.830;4.730;2022-07-12T12:58:13;4.78;;;2.00;;
27618;SDS011;15039;50.830;4.730;2022-07-12T13:00:41;2.45;;;1.70;;
27618;SDS011;15039;50.830;4.730;2022-07-12T13:03:09;2.28;;;1.60;;
27618;SDS011;15039;50.830;4.730;2022-07-12T13:05:36;4.07;;;1.70;;
27618;SDS011;15039;50.830;4.730;2022-07-12T13:08:03;1.70;;;1.60;;
27618;SDS011;15039;50.830;4.730;2022-07-12T13:10:30;2.38;;;1.60;;
27618;SDS011;15039;50.830;4.730;2022-07-12T13:12:57;4.03;;;1.40;;
27618;SDS011;15039;50.830;4.730;2022-07-12T13:15:24;1.77;;;1.38;;
27618;SDS011;15039;50.830;4.730;2022-07-12T13:17:50;1.58;;;1.20;;
27618;SDS011;15039;50.830;4.730;2022-07-12T13:20:16;1.30;;;1.20;;
27618;SDS011;15039;50.830;4.730;2022-07-12T13:22:42;1.20;;;1.17;;
27618;SDS011;15039;50.830;4.730;2022-07-12T13:25:11;1.27;;;1.10;;
27618;SDS011;15039;50.830;4.730;2022-07-12T13:27:38;1.30;;;1.20;;
27618;SDS011;15039;50.830;4.730;2022-07-12T13:30:05;1.73;;;1.63;;
27618;SDS011;15039;50.830;4.730;2022-07-12T13:32:33;2.92;;;1.60;;
27618;SDS011;15039;50.830;4.730;2022-07-12T13:34:59;2.40;;;1.55;;
27618;SDS011;15039;50.830;4.730;2022-07-12T13:37:25;1.50;;;1.40;;
27618;SDS011;15039;50.830;4.730;2022-07-12T13:39:51;1.45;;;1.35;;
27618;SDS011;15039;50.830;4.730;2022-07-12T13:42:35;2.63;;;1.40;;
27618;SDS011;15039;50.830;4.730;2022-07-12T13:45:04;1.77;;;1.13;;
27618;SDS011;15039;50.830;4.730;2022-07-12T13:47:31;3.33;;;1.40;;
27618;SDS011;15039;50.830;4.730;2022-07-12T13:49:57;1.52;;;1.42;;
27618;SDS011;15039;50.830;4.730;2022-07-12T13:52:22;2.00;;;1.58;;
27618;SDS011;15039;50.830;4.730;2022-07-12T13:54:48;1.50;;;1.40;;
27618;SDS011;15039;50.830;4.730;2022-07-12T13:57:14;2.78;;;1.38;;
27618;SDS011;15039;50.830;4.730;2022-07-12T13:59:40;2.22;;;1.35;;
27618;SDS011;15039;50.830;4.730;2022-07-12T14:02:05;1.83;;;1.42;;
27618;SDS011;15039;50.830;4.730;2022-07-12T14:04:31;1.73;;;1.40;;
27618;SDS011;15039;50.830;4.730;2022-07-12T14:06:57;1.50;;;1.40;;
27618;SDS011;15039;50.830;4.730;2022-07-12T14:09:23;2.42;;;1.40;;
27618;SDS011;15039;50.830;4.730;2022-07-12T14:11:49;1.75;;;1.63;;
27618;SDS011;15039;50.830;4.730;2022-07-12T14:14:15;2.92;;;1.38;;
27618;SDS011;15039;50.830;4.730;2022-07-12T14:16:41;1.50;;;1.38;;
27618;SDS011;15039;50.830;4.730;2022-07-12T14:19:07;1.60;;;1.50;;
27618;SDS011;15039;50.830;4.730;2022-07-12T14:21:33;1.50;;;1.40;;
27618;SDS011;15039;50.830;4.730;2022-07-12T14:23:58;1.58;;;1.40;;
27618;SDS011;15039;50.830;4.730;2022-07-12T14:26:26;4.47;;;1.50;;
27618;SDS011;15039;50.830;4.730;2022-07-12T14:28:52;3.00;;;1.50;;
27618;SDS011;15039;50.830;4.730;2022-07-12T14:31:18;1.92;;;1.40;;
27618;SDS011;15039;50.830;4.730;2022-07-12T14:33:44;1.67;;;1.35;;
27618;SDS011;15039;50.830;4.730;2022-07-12T14:36:09;2.33;;;1.48;;
27618;SDS011;15039;50.830;4.730;2022-07-12T14:38:35;1.83;;;1.25;;
27618;SDS011;15039;50.830;4.730;2022-07-12T14:41:01;1.92;;;1.48;;
27618;SDS011;15039;50.830;4.730;2022-07-12T14:43:27;4.63;;;1.27;;
27618;SDS011;15039;50.830;4.730;2022-07-12T14:45:53;1.38;;;1.27;;
27618;SDS011;15039;50.830;4.730;2022-07-12T14:48:20;1.80;;;1.40;;
27618;SDS011;15039;50.830;4.730;2022-07-12T14:50:46;1.50;;;1.40;;
27618;SDS011;15039;50.830;4.730;2022-07-12T14:53:12;1.42;;;1.33;;
27618;SDS011;15039;50.830;4.730;2022-07-12T14:55:39;1.40;;;1.30;;
27618;SDS011;15039;50.830;4.730;2022-07-12T14:58:05;1.38;;;1.27;;
27618;SDS011;15039;50.830;4.730;2022-07-12T15:00:33;1.42;;;1.20;;
27618;SDS011;15039;50.830;4.730;2022-07-12T15:03:00;2.15;;;1.20;;
27618;SDS011;15039;50.830;4.730;2022-07-12T15:05:26;2.08;;;1.60;;
27618;SDS011;15039;50.830;4.730;2022-07-12T15:07:52;2.53;;;1.15;;
27618;SDS011;15039;50.830;4.730;2022-07-12T15:10:17;1.88;;;1.33;;
27618;SDS011;15039;50.830;4.730;2022-07-12T15:12:43;2.42;;;1.10;;